EZY750 LGAV-LLBG
Flight info
| Callsign | EZY750 |
|---|---|
| Flight time | 1h 47m |
| Altitude | 23000 |
| Route | KEA N132 TUXEM/N0436F370 UT514 PEXAN UM601 MADEX UN132 KUPIS UN134 VANZA DCT PIKOG L609 ZUKKO |
| Aircraft | A320/M-SDE3FGHIRWY/LB1 |
Departure
| Time | 2026-05-05 05:34 |
|---|---|
| Airport | Athens Eleftherios Venizelos International Airport (LGAV) |
Arrival
| Time | 2026-05-05 07:21 |
|---|---|
| Airport | Ben Gurion International Airport (LLBG) |
| Time | Latitude | Longitude | Altitude | Speed | Heading |
|---|---|---|---|---|---|
| 2026-05-05 05:04 | 37.93656 | 23.94887 | 290 ft | 0 kts | 320° |
| 2026-05-05 05:23 | 37.93654 | 23.94889 | 290 ft | 2 kts | 319° |
| 2026-05-05 05:24 | 37.93643 | 23.94904 | 295 ft | 2 kts | 315° |
| 2026-05-05 05:24 | 37.93633 | 23.94920 | 293 ft | 2 kts | 298° |
| 2026-05-05 05:24 | 37.93626 | 23.94940 | 296 ft | 2 kts | 279° |
| 2026-05-05 05:24 | 37.93624 | 23.94960 | 296 ft | 2 kts | 262° |
| 2026-05-05 05:25 | 37.93628 | 23.94980 | 295 ft | 2 kts | 245° |
| 2026-05-05 05:25 | 37.93636 | 23.94999 | 296 ft | 2 kts | 229° |
| 2026-05-05 05:25 | 37.93644 | 23.95009 | 296 ft | 1 kts | 216° |
| 2026-05-05 05:25 | 37.93644 | 23.95010 | 296 ft | 0 kts | 214° |
| 2026-05-05 05:27 | 37.93641 | 23.95007 | 296 ft | 3 kts | 214° |
| 2026-05-05 05:27 | 37.93638 | 23.95005 | 296 ft | 0 kts | 214° |
| 2026-05-05 05:28 | 37.93628 | 23.95004 | 296 ft | 4 kts | 168° |
| 2026-05-05 05:29 | 37.93572 | 23.95043 | 293 ft | 14 kts | 177° |
| 2026-05-05 05:29 | 37.93463 | 23.94958 | 292 ft | 22 kts | 217° |
| 2026-05-05 05:29 | 37.93333 | 23.94834 | 288 ft | 25 kts | 217° |
| 2026-05-05 05:29 | 37.93188 | 23.94695 | 286 ft | 27 kts | 217° |
| 2026-05-05 05:30 | 37.93030 | 23.94543 | 284 ft | 29 kts | 217° |
| 2026-05-05 05:30 | 37.92860 | 23.94384 | 282 ft | 31 kts | 216° |
| 2026-05-05 05:30 | 37.92681 | 23.94216 | 280 ft | 32 kts | 217° |
| 2026-05-05 05:30 | 37.92546 | 23.94087 | 278 ft | 20 kts | 214° |
| 2026-05-05 05:31 | 37.92484 | 23.94085 | 277 ft | 0 kts | 142° |
| 2026-05-05 05:31 | 37.92476 | 23.94092 | 277 ft | 3 kts | 142° |
| 2026-05-05 05:31 | 37.92449 | 23.94130 | 277 ft | 8 kts | 125° |
| 2026-05-05 05:31 | 37.92414 | 23.94213 | 277 ft | 13 kts | 99° |
| 2026-05-05 05:32 | 37.92418 | 23.94348 | 277 ft | 17 kts | 76° |
| 2026-05-05 05:32 | 37.92473 | 23.94444 | 279 ft | 19 kts | 32° |
| 2026-05-05 05:32 | 37.92508 | 23.94477 | 279 ft | 20 kts | 38° |
| 2026-05-05 05:33 | 37.92627 | 23.94590 | 283 ft | 11 kts | 36° |
| 2026-05-05 05:33 | 37.92630 | 23.94593 | 283 ft | 0 kts | 36° |
| 2026-05-05 05:33 | 37.92839 | 23.94787 | 285 ft | 76 kts | 37° |
| 2026-05-05 05:33 | 37.93437 | 23.95353 | 294 ft | 136 kts | 37° |
| 2026-05-05 05:34 | 37.94311 | 23.96172 | 476 ft | 164 kts | 36° |
| 2026-05-05 05:34 | 37.95219 | 23.97021 | 1191 ft | 162 kts | 35° |
| 2026-05-05 05:34 | 37.96118 | 23.97888 | 1769 ft | 173 kts | 35° |
| 2026-05-05 05:34 | 37.97139 | 23.98869 | 2132 ft | 195 kts | 34° |
| 2026-05-05 05:35 | 37.98281 | 23.99967 | 2487 ft | 215 kts | 36° |
| 2026-05-05 05:35 | 37.99530 | 24.01173 | 2996 ft | 232 kts | 36° |
| 2026-05-05 05:35 | 38.00824 | 24.02425 | 3825 ft | 234 kts | 36° |
| 2026-05-05 05:35 | 38.02142 | 24.03702 | 4502 ft | 248 kts | 36° |
| 2026-05-05 05:36 | 38.03578 | 24.05090 | 4948 ft | 272 kts | 36° |
| 2026-05-05 05:36 | 38.05134 | 24.06592 | 5544 ft | 287 kts | 36° |
| 2026-05-05 05:36 | 38.06711 | 24.08111 | 6432 ft | 290 kts | 36° |
| 2026-05-05 05:36 | 38.08217 | 24.09836 | 7310 ft | 296 kts | 52° |
| 2026-05-05 05:37 | 38.09048 | 24.12241 | 8138 ft | 306 kts | 78° |
| 2026-05-05 05:37 | 38.08895 | 24.14963 | 8955 ft | 319 kts | 103° |
| 2026-05-05 05:37 | 38.07966 | 24.17561 | 9785 ft | 329 kts | 121° |
| 2026-05-05 05:37 | 38.06403 | 24.19727 | 10527 ft | 339 kts | 140° |
| 2026-05-05 05:38 | 38.04321 | 24.21179 | 11243 ft | 348 kts | 160° |
| 2026-05-05 05:38 | 38.01933 | 24.21799 | 11960 ft | 353 kts | 172° |
| 2026-05-05 05:38 | 37.99512 | 24.22227 | 12686 ft | 358 kts | 172° |
| 2026-05-05 05:38 | 37.97023 | 24.22658 | 13413 ft | 363 kts | 173° |
| 2026-05-05 05:39 | 37.94503 | 24.23090 | 14096 ft | 368 kts | 173° |
| 2026-05-05 05:39 | 37.91947 | 24.23529 | 14758 ft | 372 kts | 173° |
| 2026-05-05 05:39 | 37.89375 | 24.23977 | 15438 ft | 374 kts | 173° |
| 2026-05-05 05:39 | 37.86791 | 24.24429 | 16123 ft | 377 kts | 173° |
| 2026-05-05 05:40 | 37.84182 | 24.24886 | 16809 ft | 379 kts | 173° |
| 2026-05-05 05:40 | 37.81562 | 24.25346 | 17481 ft | 382 kts | 173° |
| 2026-05-05 05:40 | 37.78923 | 24.25810 | 18154 ft | 384 kts | 173° |
| 2026-05-05 05:40 | 37.76304 | 24.26271 | 18762 ft | 386 kts | 173° |
| 2026-05-05 05:41 | 37.73632 | 24.26740 | 19335 ft | 389 kts | 173° |
| 2026-05-05 05:41 | 37.70943 | 24.27210 | 19910 ft | 391 kts | 173° |
| 2026-05-05 05:41 | 37.68237 | 24.27681 | 20480 ft | 394 kts | 173° |
| 2026-05-05 05:41 | 37.65512 | 24.28153 | 21050 ft | 397 kts | 173° |
| 2026-05-05 05:42 | 37.62768 | 24.28629 | 21613 ft | 399 kts | 173° |
| 2026-05-05 05:42 | 37.60011 | 24.29148 | 22183 ft | 403 kts | 169° |
| 2026-05-05 05:42 | 37.57311 | 24.30143 | 22734 ft | 407 kts | 159° |
| 2026-05-05 05:42 | 37.54767 | 24.31727 | 23037 ft | 409 kts | 148° |
| 2026-05-05 05:43 | 37.52492 | 24.33870 | 23105 ft | 409 kts | 137° |
| 2026-05-05 05:43 | 37.50499 | 24.36351 | 23105 ft | 408 kts | 135° |
| 2026-05-05 05:43 | 37.48490 | 24.38874 | 23101 ft | 408 kts | 135° |
| 2026-05-05 05:43 | 37.46469 | 24.41388 | 23102 ft | 408 kts | 135° |
| 2026-05-05 05:44 | 37.44444 | 24.43889 | 23101 ft | 408 kts | 135° |
| 2026-05-05 05:44 | 37.42417 | 24.46386 | 23100 ft | 408 kts | 135° |
| 2026-05-05 05:44 | 37.40389 | 24.48882 | 23101 ft | 408 kts | 135° |
| 2026-05-05 05:44 | 37.38366 | 24.51380 | 23097 ft | 408 kts | 135° |
| 2026-05-05 05:45 | 37.36488 | 24.54039 | 23096 ft | 407 kts | 123° |
| 2026-05-05 05:45 | 37.35067 | 24.57106 | 23091 ft | 406 kts | 118° |
| 2026-05-05 05:45 | 37.33713 | 24.60164 | 23092 ft | 406 kts | 118° |
| 2026-05-05 05:45 | 37.32344 | 24.63273 | 23088 ft | 406 kts | 118° |
| 2026-05-05 05:46 | 37.30979 | 24.66379 | 23086 ft | 406 kts | 118° |
| 2026-05-05 05:46 | 37.29614 | 24.69481 | 23085 ft | 406 kts | 118° |
| 2026-05-05 05:46 | 37.28247 | 24.72581 | 23084 ft | 406 kts | 118° |
| 2026-05-05 05:46 | 37.26877 | 24.75683 | 23083 ft | 406 kts | 118° |
| 2026-05-05 05:47 | 37.25506 | 24.78784 | 23082 ft | 406 kts | 118° |
| 2026-05-05 05:47 | 37.24134 | 24.81880 | 23080 ft | 406 kts | 118° |
| 2026-05-05 05:47 | 37.22763 | 24.84974 | 23082 ft | 406 kts | 118° |
| 2026-05-05 05:47 | 37.21409 | 24.88028 | 23083 ft | 406 kts | 118° |
| 2026-05-05 05:48 | 37.20037 | 24.91119 | 23082 ft | 406 kts | 118° |
| 2026-05-05 05:48 | 37.18664 | 24.94212 | 23081 ft | 406 kts | 118° |
| 2026-05-05 05:48 | 37.17289 | 24.97304 | 23098 ft | 406 kts | 118° |
| 2026-05-05 05:48 | 37.15908 | 25.00407 | 23109 ft | 414 kts | 118° |
| 2026-05-05 05:49 | 37.14475 | 25.03620 | 23109 ft | 427 kts | 118° |
| 2026-05-05 05:49 | 37.13016 | 25.06885 | 23107 ft | 431 kts | 118° |
| 2026-05-05 05:49 | 37.11548 | 25.10166 | 23109 ft | 432 kts | 118° |
| 2026-05-05 05:49 | 37.10079 | 25.13449 | 23115 ft | 433 kts | 118° |
| 2026-05-05 05:50 | 37.08626 | 25.16693 | 23113 ft | 433 kts | 118° |
| 2026-05-05 05:50 | 37.07150 | 25.19980 | 23111 ft | 433 kts | 118° |
| 2026-05-05 05:50 | 37.05674 | 25.23264 | 23113 ft | 433 kts | 118° |
| 2026-05-05 05:50 | 37.04199 | 25.26547 | 23113 ft | 433 kts | 118° |
| 2026-05-05 05:51 | 37.02725 | 25.29831 | 23112 ft | 433 kts | 118° |
| 2026-05-05 05:51 | 37.01246 | 25.33119 | 23110 ft | 433 kts | 118° |
| 2026-05-05 05:51 | 36.99770 | 25.36395 | 23107 ft | 433 kts | 118° |
| 2026-05-05 05:51 | 36.98291 | 25.39676 | 23104 ft | 433 kts | 118° |
| 2026-05-05 05:52 | 36.96829 | 25.42912 | 23103 ft | 433 kts | 118° |
| 2026-05-05 05:52 | 36.95350 | 25.46186 | 23100 ft | 433 kts | 118° |
| 2026-05-05 05:52 | 36.93868 | 25.49465 | 23099 ft | 433 kts | 118° |
| 2026-05-05 05:52 | 36.92390 | 25.52742 | 23093 ft | 433 kts | 118° |
| 2026-05-05 05:53 | 36.90910 | 25.56018 | 23092 ft | 433 kts | 118° |
| 2026-05-05 05:53 | 36.89427 | 25.59292 | 23085 ft | 433 kts | 118° |
| 2026-05-05 05:53 | 36.87941 | 25.62567 | 23085 ft | 433 kts | 118° |
| 2026-05-05 05:53 | 36.86451 | 25.65836 | 23084 ft | 433 kts | 118° |
| 2026-05-05 05:54 | 36.84959 | 25.69105 | 23081 ft | 433 kts | 118° |
| 2026-05-05 05:54 | 36.83488 | 25.72330 | 23075 ft | 434 kts | 119° |
| 2026-05-05 05:54 | 36.81993 | 25.75604 | 23079 ft | 434 kts | 119° |
| 2026-05-05 05:54 | 36.80500 | 25.78874 | 23079 ft | 434 kts | 118° |
| 2026-05-05 05:55 | 36.79006 | 25.82148 | 23064 ft | 434 kts | 118° |
| 2026-05-05 05:55 | 36.77512 | 25.85422 | 23077 ft | 434 kts | 118° |
| 2026-05-05 05:55 | 36.76017 | 25.88691 | 23076 ft | 434 kts | 119° |
| 2026-05-05 05:55 | 36.74519 | 25.91961 | 23076 ft | 434 kts | 119° |
| 2026-05-05 05:56 | 36.73019 | 25.95233 | 23070 ft | 435 kts | 118° |
| 2026-05-05 05:56 | 36.71519 | 25.98501 | 23078 ft | 435 kts | 119° |
| 2026-05-05 05:56 | 36.70038 | 26.01729 | 23079 ft | 435 kts | 119° |
| 2026-05-05 05:56 | 36.68537 | 26.04996 | 23080 ft | 435 kts | 119° |
| 2026-05-05 05:57 | 36.67032 | 26.08268 | 23075 ft | 435 kts | 119° |
| 2026-05-05 05:57 | 36.65527 | 26.11537 | 23078 ft | 435 kts | 119° |
| 2026-05-05 05:57 | 36.64020 | 26.14804 | 23072 ft | 435 kts | 119° |
| 2026-05-05 05:57 | 36.62513 | 26.18071 | 23075 ft | 435 kts | 119° |
| 2026-05-05 05:58 | 36.61004 | 26.21337 | 23080 ft | 435 kts | 118° |
| 2026-05-05 05:58 | 36.59493 | 26.24605 | 23082 ft | 435 kts | 118° |
| 2026-05-05 05:58 | 36.57982 | 26.27872 | 23069 ft | 436 kts | 118° |
| 2026-05-05 05:58 | 36.56490 | 26.31088 | 23065 ft | 436 kts | 118° |
| 2026-05-05 05:59 | 36.54972 | 26.34352 | 23065 ft | 436 kts | 118° |
| 2026-05-05 05:59 | 36.53452 | 26.37615 | 23075 ft | 436 kts | 118° |
| 2026-05-05 05:59 | 36.51933 | 26.40876 | 23069 ft | 436 kts | 118° |
| 2026-05-05 05:59 | 36.50413 | 26.44144 | 23071 ft | 436 kts | 118° |
| 2026-05-05 06:00 | 36.48896 | 26.47407 | 23072 ft | 436 kts | 118° |
| 2026-05-05 06:00 | 36.47375 | 26.50674 | 23073 ft | 437 kts | 118° |
| 2026-05-05 06:00 | 36.45854 | 26.53937 | 23075 ft | 437 kts | 118° |
| 2026-05-05 06:00 | 36.44348 | 26.57157 | 23067 ft | 437 kts | 118° |
| 2026-05-05 06:01 | 36.42802 | 26.60461 | 23066 ft | 437 kts | 118° |
| 2026-05-05 06:01 | 36.41294 | 26.63682 | 23061 ft | 437 kts | 118° |
| 2026-05-05 06:01 | 36.39768 | 26.66942 | 23059 ft | 437 kts | 118° |
| 2026-05-05 06:01 | 36.38236 | 26.70209 | 23062 ft | 438 kts | 118° |
| 2026-05-05 06:02 | 36.36704 | 26.73467 | 23058 ft | 438 kts | 118° |
| 2026-05-05 06:02 | 36.35169 | 26.76731 | 23055 ft | 438 kts | 118° |
| 2026-05-05 06:02 | 36.33632 | 26.79999 | 23064 ft | 438 kts | 118° |
| 2026-05-05 06:02 | 36.32096 | 26.83264 | 23061 ft | 438 kts | 118° |
| 2026-05-05 06:03 | 36.30559 | 26.86529 | 23057 ft | 439 kts | 118° |
| 2026-05-05 06:03 | 36.29049 | 26.89735 | 23058 ft | 439 kts | 118° |
| 2026-05-05 06:03 | 36.27500 | 26.93018 | 23053 ft | 439 kts | 118° |
| 2026-05-05 06:03 | 36.25958 | 26.96283 | 23063 ft | 439 kts | 118° |
| 2026-05-05 06:04 | 36.24434 | 26.99502 | 23052 ft | 439 kts | 118° |
| 2026-05-05 06:04 | 36.22865 | 27.02814 | 23051 ft | 440 kts | 118° |
| 2026-05-05 06:04 | 36.21318 | 27.06081 | 23048 ft | 440 kts | 118° |
| 2026-05-05 06:04 | 36.19768 | 27.09347 | 23046 ft | 440 kts | 118° |
| 2026-05-05 06:05 | 36.18214 | 27.12615 | 23049 ft | 440 kts | 118° |
| 2026-05-05 06:05 | 36.16696 | 27.15807 | 23052 ft | 441 kts | 118° |
| 2026-05-05 06:05 | 36.15128 | 27.19103 | 23050 ft | 441 kts | 118° |
| 2026-05-05 06:05 | 36.13571 | 27.22369 | 23049 ft | 441 kts | 118° |
| 2026-05-05 06:06 | 36.12009 | 27.25635 | 23042 ft | 441 kts | 118° |
| 2026-05-05 06:06 | 36.10448 | 27.28900 | 23046 ft | 441 kts | 118° |
| 2026-05-05 06:06 | 36.08888 | 27.32168 | 23042 ft | 441 kts | 118° |
| 2026-05-05 06:06 | 36.07326 | 27.35436 | 23047 ft | 442 kts | 118° |
| 2026-05-05 06:07 | 36.05762 | 27.38709 | 23039 ft | 442 kts | 118° |
| 2026-05-05 06:07 | 36.04200 | 27.41981 | 23044 ft | 442 kts | 118° |
| 2026-05-05 06:07 | 36.02637 | 27.45251 | 23040 ft | 442 kts | 118° |
| 2026-05-05 06:07 | 36.01089 | 27.48478 | 23038 ft | 443 kts | 118° |
| 2026-05-05 06:08 | 35.99516 | 27.51745 | 23037 ft | 443 kts | 118° |
| 2026-05-05 06:08 | 35.97941 | 27.55011 | 23040 ft | 443 kts | 118° |
| 2026-05-05 06:08 | 35.96366 | 27.58279 | 23042 ft | 443 kts | 118° |
| 2026-05-05 06:08 | 35.94789 | 27.61554 | 23039 ft | 443 kts | 118° |
| 2026-05-05 06:09 | 35.93216 | 27.64821 | 23034 ft | 444 kts | 118° |
| 2026-05-05 06:09 | 35.91638 | 27.68093 | 23032 ft | 444 kts | 118° |
| 2026-05-05 06:09 | 35.90056 | 27.71367 | 23029 ft | 444 kts | 118° |
| 2026-05-05 06:09 | 35.88474 | 27.74637 | 23030 ft | 444 kts | 118° |
| 2026-05-05 06:10 | 35.86912 | 27.77863 | 23029 ft | 444 kts | 118° |
| 2026-05-05 06:10 | 35.85325 | 27.81134 | 23030 ft | 445 kts | 118° |
| 2026-05-05 06:10 | 35.83737 | 27.84405 | 23026 ft | 445 kts | 118° |
| 2026-05-05 06:10 | 35.82146 | 27.87678 | 23024 ft | 445 kts | 118° |
| 2026-05-05 06:11 | 35.80556 | 27.90946 | 23022 ft | 445 kts | 118° |
| 2026-05-05 06:11 | 35.78963 | 27.94221 | 23022 ft | 446 kts | 118° |
| 2026-05-05 06:11 | 35.77371 | 27.97493 | 23021 ft | 446 kts | 118° |
| 2026-05-05 06:11 | 35.75775 | 28.00770 | 23020 ft | 446 kts | 118° |
| 2026-05-05 06:12 | 35.74180 | 28.04046 | 23018 ft | 446 kts | 118° |
| 2026-05-05 06:12 | 35.72604 | 28.07275 | 23017 ft | 447 kts | 118° |
| 2026-05-05 06:12 | 35.71002 | 28.10553 | 23018 ft | 447 kts | 118° |
| 2026-05-05 06:12 | 35.69400 | 28.13831 | 23011 ft | 447 kts | 118° |
| 2026-05-05 06:13 | 35.67796 | 28.17110 | 23013 ft | 448 kts | 118° |
| 2026-05-05 06:13 | 35.66190 | 28.20387 | 23012 ft | 448 kts | 118° |
| 2026-05-05 06:13 | 35.64576 | 28.23671 | 23011 ft | 448 kts | 118° |
| 2026-05-05 06:13 | 35.62963 | 28.26949 | 23009 ft | 448 kts | 118° |
| 2026-05-05 06:14 | 35.61348 | 28.30229 | 23010 ft | 449 kts | 118° |
| 2026-05-05 06:14 | 35.59732 | 28.33507 | 23008 ft | 449 kts | 118° |
| 2026-05-05 06:14 | 35.58116 | 28.36786 | 23011 ft | 449 kts | 118° |
| 2026-05-05 06:14 | 35.56518 | 28.40028 | 23008 ft | 449 kts | 118° |
| 2026-05-05 06:15 | 35.54899 | 28.43309 | 23010 ft | 450 kts | 118° |
| 2026-05-05 06:15 | 35.53279 | 28.46593 | 23006 ft | 450 kts | 118° |
| 2026-05-05 06:15 | 35.51659 | 28.49878 | 23005 ft | 450 kts | 118° |
| 2026-05-05 06:15 | 35.50036 | 28.53164 | 23003 ft | 450 kts | 118° |
| 2026-05-05 06:16 | 35.48409 | 28.56452 | 23005 ft | 451 kts | 118° |
| 2026-05-05 06:16 | 35.46780 | 28.59734 | 22997 ft | 451 kts | 118° |
| 2026-05-05 06:16 | 35.45146 | 28.63020 | 22999 ft | 451 kts | 118° |
| 2026-05-05 06:16 | 35.43538 | 28.66253 | 22998 ft | 451 kts | 118° |
| 2026-05-05 06:17 | 35.41901 | 28.69543 | 22997 ft | 451 kts | 119° |
| 2026-05-05 06:17 | 35.40266 | 28.72829 | 22997 ft | 452 kts | 119° |
| 2026-05-05 06:17 | 35.38630 | 28.76117 | 22994 ft | 452 kts | 118° |
| 2026-05-05 06:17 | 35.36991 | 28.79407 | 22995 ft | 452 kts | 119° |
| 2026-05-05 06:18 | 35.35351 | 28.82696 | 22996 ft | 452 kts | 119° |
| 2026-05-05 06:18 | 35.33708 | 28.85982 | 22998 ft | 453 kts | 119° |
| 2026-05-05 06:18 | 35.32055 | 28.89289 | 23015 ft | 462 kts | 119° |
| 2026-05-05 06:18 | 35.30358 | 28.92692 | 23019 ft | 475 kts | 119° |
| 2026-05-05 06:19 | 35.28637 | 28.96140 | 23010 ft | 486 kts | 119° |
| 2026-05-05 06:19 | 35.26852 | 28.99707 | 23013 ft | 496 kts | 119° |
| 2026-05-05 06:19 | 35.25031 | 29.03331 | 23014 ft | 504 kts | 119° |
| 2026-05-05 06:19 | 35.23189 | 29.06995 | 23013 ft | 507 kts | 119° |
| 2026-05-05 06:20 | 35.21346 | 29.10672 | 23010 ft | 508 kts | 119° |
| 2026-05-05 06:20 | 35.19496 | 29.14360 | 23009 ft | 508 kts | 119° |
| 2026-05-05 06:20 | 35.17649 | 29.18040 | 23010 ft | 508 kts | 119° |
| 2026-05-05 06:20 | 35.15795 | 29.21720 | 23007 ft | 508 kts | 119° |
| 2026-05-05 06:21 | 35.13939 | 29.25393 | 23007 ft | 508 kts | 119° |
| 2026-05-05 06:21 | 35.12116 | 29.28990 | 23007 ft | 509 kts | 119° |
| 2026-05-05 06:21 | 35.10241 | 29.32691 | 23009 ft | 509 kts | 119° |
| 2026-05-05 06:21 | 35.08381 | 29.36366 | 23007 ft | 509 kts | 120° |
| 2026-05-05 06:22 | 35.06532 | 29.40019 | 23010 ft | 509 kts | 120° |
| 2026-05-05 06:22 | 35.04669 | 29.43690 | 23004 ft | 509 kts | 120° |
| 2026-05-05 06:22 | 35.02802 | 29.47362 | 23003 ft | 509 kts | 120° |
| 2026-05-05 06:22 | 35.01566 | 29.49791 | 23000 ft | 509 kts | 120° |
| 2026-05-05 06:23 | 34.99629 | 29.53608 | 23000 ft | 509 kts | 120° |
| 2026-05-05 06:23 | 34.97761 | 29.57278 | 22996 ft | 509 kts | 120° |
| 2026-05-05 06:23 | 34.95890 | 29.60944 | 22996 ft | 509 kts | 120° |
| 2026-05-05 06:23 | 34.94040 | 29.64562 | 22997 ft | 510 kts | 120° |
| 2026-05-05 06:24 | 34.92166 | 29.68222 | 22991 ft | 510 kts | 120° |
| 2026-05-05 06:24 | 34.90285 | 29.71888 | 22991 ft | 510 kts | 120° |
| 2026-05-05 06:24 | 34.88401 | 29.75549 | 22991 ft | 510 kts | 120° |
| 2026-05-05 06:24 | 34.86516 | 29.79209 | 22989 ft | 510 kts | 120° |
| 2026-05-05 06:25 | 34.84658 | 29.82826 | 22988 ft | 510 kts | 120° |
| 2026-05-05 06:25 | 34.82769 | 29.86508 | 22991 ft | 511 kts | 120° |
| 2026-05-05 06:25 | 34.80936 | 29.90077 | 22989 ft | 511 kts | 120° |
| 2026-05-05 06:25 | 34.79048 | 29.93741 | 22988 ft | 511 kts | 120° |
| 2026-05-05 06:26 | 34.77156 | 29.97405 | 22988 ft | 511 kts | 120° |
| 2026-05-05 06:26 | 34.75264 | 30.01065 | 22985 ft | 511 kts | 120° |
| 2026-05-05 06:26 | 34.73422 | 30.04660 | 22987 ft | 512 kts | 120° |
| 2026-05-05 06:26 | 34.71536 | 30.08366 | 22988 ft | 512 kts | 120° |
| 2026-05-05 06:27 | 34.69671 | 30.12047 | 22987 ft | 512 kts | 120° |
| 2026-05-05 06:27 | 34.65946 | 30.19417 | 22983 ft | 512 kts | 120° |
| 2026-05-05 06:27 | 34.64075 | 30.23106 | 22988 ft | 513 kts | 120° |
| 2026-05-05 06:28 | 34.62203 | 30.26784 | 22986 ft | 513 kts | 120° |
| 2026-05-05 06:28 | 34.60324 | 30.30456 | 22988 ft | 513 kts | 120° |
| 2026-05-05 06:28 | 34.58461 | 30.34095 | 22982 ft | 513 kts | 120° |
| 2026-05-05 06:28 | 34.56577 | 30.37768 | 22984 ft | 513 kts | 120° |
| 2026-05-05 06:29 | 34.54689 | 30.41445 | 22985 ft | 514 kts | 120° |
| 2026-05-05 06:29 | 34.52798 | 30.45129 | 22987 ft | 514 kts | 120° |
| 2026-05-05 06:29 | 34.50908 | 30.48807 | 22986 ft | 514 kts | 120° |
| 2026-05-05 06:29 | 34.49018 | 30.52486 | 22981 ft | 514 kts | 120° |
| 2026-05-05 06:30 | 34.47128 | 30.56168 | 22982 ft | 515 kts | 120° |
| 2026-05-05 06:30 | 34.45237 | 30.59848 | 22980 ft | 515 kts | 120° |
| 2026-05-05 06:30 | 34.43341 | 30.63523 | 22983 ft | 515 kts | 120° |
| 2026-05-05 06:30 | 34.41440 | 30.67203 | 22979 ft | 515 kts | 120° |
| 2026-05-05 06:31 | 34.39563 | 30.70832 | 22985 ft | 515 kts | 120° |
| 2026-05-05 06:31 | 34.37660 | 30.74508 | 22984 ft | 516 kts | 120° |
| 2026-05-05 06:31 | 34.35754 | 30.78187 | 22984 ft | 516 kts | 121° |
| 2026-05-05 06:31 | 34.33848 | 30.81867 | 22987 ft | 516 kts | 121° |
| 2026-05-05 06:32 | 34.31943 | 30.85543 | 22987 ft | 516 kts | 121° |
| 2026-05-05 06:32 | 34.30038 | 30.89219 | 22986 ft | 516 kts | 121° |
| 2026-05-05 06:32 | 34.28129 | 30.92896 | 22989 ft | 516 kts | 121° |
| 2026-05-05 06:32 | 34.26214 | 30.96574 | 22984 ft | 517 kts | 121° |
| 2026-05-05 06:33 | 34.24321 | 31.00197 | 22986 ft | 517 kts | 121° |
| 2026-05-05 06:33 | 34.22403 | 31.03867 | 22986 ft | 517 kts | 121° |
| 2026-05-05 06:33 | 34.20489 | 31.07538 | 22988 ft | 517 kts | 121° |
| 2026-05-05 06:33 | 34.18570 | 31.11218 | 22986 ft | 517 kts | 121° |
| 2026-05-05 06:34 | 34.16649 | 31.14889 | 22983 ft | 517 kts | 121° |
| 2026-05-05 06:34 | 34.14726 | 31.18557 | 22987 ft | 517 kts | 121° |
| 2026-05-05 06:34 | 34.12804 | 31.22226 | 22985 ft | 518 kts | 121° |
| 2026-05-05 06:34 | 34.10877 | 31.25902 | 22984 ft | 518 kts | 121° |
| 2026-05-05 06:35 | 34.08979 | 31.29522 | 22982 ft | 518 kts | 121° |
| 2026-05-05 06:35 | 34.07053 | 31.33195 | 22984 ft | 518 kts | 121° |
| 2026-05-05 06:35 | 34.05125 | 31.36863 | 22985 ft | 518 kts | 121° |
| 2026-05-05 06:35 | 34.03195 | 31.40529 | 22985 ft | 518 kts | 121° |
| 2026-05-05 06:36 | 34.01262 | 31.44194 | 22987 ft | 518 kts | 121° |
| 2026-05-05 06:36 | 33.99330 | 31.47858 | 22983 ft | 518 kts | 121° |
| 2026-05-05 06:36 | 33.97398 | 31.51520 | 22985 ft | 518 kts | 121° |
| 2026-05-05 06:36 | 33.95489 | 31.55134 | 22984 ft | 518 kts | 121° |
| 2026-05-05 06:37 | 33.93552 | 31.58794 | 22986 ft | 518 kts | 122° |
| 2026-05-05 06:37 | 33.91612 | 31.62449 | 22982 ft | 518 kts | 122° |
| 2026-05-05 06:37 | 33.89668 | 31.66103 | 22984 ft | 518 kts | 122° |
| 2026-05-05 06:37 | 33.87721 | 31.69756 | 22988 ft | 518 kts | 122° |
| 2026-05-05 06:38 | 33.85774 | 31.73410 | 22988 ft | 518 kts | 122° |
| 2026-05-05 06:38 | 33.83830 | 31.77056 | 22984 ft | 518 kts | 122° |
| 2026-05-05 06:38 | 33.81884 | 31.80706 | 22986 ft | 518 kts | 122° |
| 2026-05-05 06:38 | 33.79963 | 31.84313 | 22986 ft | 519 kts | 122° |
| 2026-05-05 06:39 | 33.78020 | 31.87960 | 22989 ft | 519 kts | 122° |
| 2026-05-05 06:39 | 33.76075 | 31.91608 | 22988 ft | 519 kts | 122° |
| 2026-05-05 06:39 | 33.74129 | 31.95257 | 22985 ft | 519 kts | 122° |
| 2026-05-05 06:39 | 33.72178 | 31.98905 | 22988 ft | 519 kts | 122° |
| 2026-05-05 06:40 | 33.70226 | 32.02544 | 22982 ft | 519 kts | 122° |
| 2026-05-05 06:40 | 33.68268 | 32.06187 | 22987 ft | 519 kts | 122° |
| 2026-05-05 06:40 | 33.66315 | 32.09822 | 22988 ft | 519 kts | 122° |
| 2026-05-05 06:40 | 33.64358 | 32.13460 | 22990 ft | 519 kts | 122° |
| 2026-05-05 06:41 | 33.62426 | 32.17047 | 22988 ft | 519 kts | 122° |
| 2026-05-05 06:41 | 33.60468 | 32.20677 | 22986 ft | 519 kts | 123° |
| 2026-05-05 06:41 | 33.58508 | 32.24309 | 22987 ft | 519 kts | 123° |
| 2026-05-05 06:41 | 33.56547 | 32.27942 | 22985 ft | 519 kts | 123° |
| 2026-05-05 06:42 | 33.54587 | 32.31570 | 22987 ft | 519 kts | 123° |
| 2026-05-05 06:42 | 33.52627 | 32.35197 | 22861 ft | 515 kts | 123° |
| 2026-05-05 06:42 | 33.50702 | 32.38757 | 21777 ft | 501 kts | 123° |
| 2026-05-05 06:42 | 33.49450 | 32.41058 | 20765 ft | 496 kts | 123° |
| 2026-05-05 06:43 | 33.47579 | 32.44483 | 19375 ft | 487 kts | 124° |
| 2026-05-05 06:43 | 33.45153 | 32.48916 | 17582 ft | 474 kts | 124° |
| 2026-05-05 06:43 | 33.43368 | 32.52189 | 16253 ft | 464 kts | 124° |
| 2026-05-05 06:43 | 33.41625 | 32.55396 | 14995 ft | 454 kts | 124° |
| 2026-05-05 06:44 | 33.39920 | 32.58538 | 13922 ft | 448 kts | 124° |
| 2026-05-05 06:44 | 33.38225 | 32.61655 | 13350 ft | 445 kts | 124° |
| 2026-05-05 06:44 | 33.36540 | 32.64746 | 13106 ft | 443 kts | 124° |
| 2026-05-05 06:44 | 33.35424 | 32.66791 | 12969 ft | 442 kts | 124° |
| 2026-05-05 06:45 | 33.33740 | 32.69872 | 12980 ft | 442 kts | 124° |
| 2026-05-05 06:45 | 33.32054 | 32.72949 | 12978 ft | 442 kts | 124° |
| 2026-05-05 06:45 | 33.29823 | 32.77020 | 12978 ft | 442 kts | 124° |
| 2026-05-05 06:45 | 33.28141 | 32.80092 | 12981 ft | 442 kts | 124° |
| 2026-05-05 06:46 | 33.27002 | 32.82173 | 12979 ft | 442 kts | 124° |
| 2026-05-05 06:46 | 33.24774 | 32.86245 | 12982 ft | 442 kts | 124° |
| 2026-05-05 06:46 | 33.23657 | 32.88286 | 12981 ft | 442 kts | 124° |
| 2026-05-05 06:46 | 33.21974 | 32.91361 | 12983 ft | 443 kts | 125° |
| 2026-05-05 06:47 | 33.20285 | 32.94437 | 12981 ft | 443 kts | 125° |
| 2026-05-05 06:47 | 33.18596 | 32.97505 | 12986 ft | 442 kts | 125° |
| 2026-05-05 06:47 | 33.16348 | 33.01565 | 12983 ft | 443 kts | 125° |
| 2026-05-05 06:47 | 33.14651 | 33.04627 | 12983 ft | 443 kts | 125° |
| 2026-05-05 06:48 | 33.12956 | 33.07696 | 12985 ft | 443 kts | 125° |
| 2026-05-05 06:48 | 33.11813 | 33.09772 | 12985 ft | 443 kts | 125° |
| 2026-05-05 06:48 | 33.10145 | 33.12810 | 12984 ft | 443 kts | 125° |
| 2026-05-05 06:48 | 33.08452 | 33.15881 | 12984 ft | 443 kts | 125° |
| 2026-05-05 06:49 | 33.06754 | 33.18949 | 12987 ft | 443 kts | 125° |
| 2026-05-05 06:49 | 33.05054 | 33.22009 | 12987 ft | 443 kts | 126° |
| 2026-05-05 06:49 | 33.03352 | 33.25074 | 12990 ft | 443 kts | 126° |
| 2026-05-05 06:49 | 33.01687 | 33.28080 | 12981 ft | 423 kts | 126° |
| 2026-05-05 06:50 | 33.00112 | 33.30938 | 12988 ft | 402 kts | 126° |
| 2026-05-05 06:50 | 32.98614 | 33.33651 | 12987 ft | 383 kts | 126° |
| 2026-05-05 06:50 | 32.97165 | 33.36266 | 12988 ft | 375 kts | 126° |
| 2026-05-05 06:50 | 32.95727 | 33.38843 | 12992 ft | 373 kts | 126° |
| 2026-05-05 06:51 | 32.94307 | 33.41381 | 12986 ft | 373 kts | 126° |
| 2026-05-05 06:51 | 32.92870 | 33.43952 | 12988 ft | 373 kts | 126° |
| 2026-05-05 06:51 | 32.91433 | 33.46522 | 12989 ft | 373 kts | 126° |
| 2026-05-05 06:51 | 32.89999 | 33.49091 | 12990 ft | 373 kts | 126° |
| 2026-05-05 06:52 | 32.88567 | 33.51656 | 12991 ft | 373 kts | 126° |
| 2026-05-05 06:52 | 32.87133 | 33.54224 | 12888 ft | 372 kts | 126° |
| 2026-05-05 06:52 | 32.85702 | 33.56784 | 12732 ft | 371 kts | 126° |
| 2026-05-05 06:52 | 32.84298 | 33.59295 | 12579 ft | 369 kts | 126° |
| 2026-05-05 06:53 | 32.82866 | 33.61826 | 12421 ft | 367 kts | 129° |
| 2026-05-05 06:53 | 32.81217 | 33.64108 | 12273 ft | 362 kts | 137° |
| 2026-05-05 06:53 | 32.79474 | 33.66258 | 12117 ft | 361 kts | 137° |
| 2026-05-05 06:53 | 32.77732 | 33.68406 | 11966 ft | 360 kts | 137° |
| 2026-05-05 06:54 | 32.76000 | 33.70538 | 11814 ft | 358 kts | 137° |
| 2026-05-05 06:54 | 32.74270 | 33.72667 | 11661 ft | 357 kts | 137° |
| 2026-05-05 06:54 | 32.72551 | 33.74781 | 11515 ft | 356 kts | 137° |
| 2026-05-05 06:54 | 32.70870 | 33.76855 | 11359 ft | 338 kts | 137° |
| 2026-05-05 06:55 | 32.69282 | 33.78816 | 11212 ft | 331 kts | 137° |
| 2026-05-05 06:55 | 32.67688 | 33.80782 | 11062 ft | 329 kts | 137° |
| 2026-05-05 06:55 | 32.66102 | 33.82732 | 10915 ft | 327 kts | 137° |
| 2026-05-05 06:55 | 32.64522 | 33.84669 | 10768 ft | 326 kts | 137° |
| 2026-05-05 06:56 | 32.62948 | 33.86598 | 10625 ft | 325 kts | 137° |
| 2026-05-05 06:56 | 32.61383 | 33.88519 | 10477 ft | 324 kts | 137° |
| 2026-05-05 06:56 | 32.59820 | 33.90435 | 10334 ft | 323 kts | 137° |
| 2026-05-05 06:56 | 32.58262 | 33.92346 | 10190 ft | 322 kts | 137° |
| 2026-05-05 06:57 | 32.56710 | 33.94248 | 10041 ft | 320 kts | 137° |
| 2026-05-05 06:57 | 32.55197 | 33.96107 | 9901 ft | 320 kts | 137° |
| 2026-05-05 06:57 | 32.53654 | 33.98026 | 9738 ft | 319 kts | 136° |
| 2026-05-05 06:57 | 32.52127 | 33.99933 | 9581 ft | 319 kts | 136° |
| 2026-05-05 06:58 | 32.50607 | 34.01836 | 9421 ft | 317 kts | 136° |
| 2026-05-05 06:58 | 32.49093 | 34.03729 | 9264 ft | 316 kts | 136° |
| 2026-05-05 06:58 | 32.47585 | 34.05614 | 9108 ft | 314 kts | 136° |
| 2026-05-05 06:58 | 32.46083 | 34.07491 | 8990 ft | 313 kts | 136° |
| 2026-05-05 06:59 | 32.44590 | 34.09369 | 8998 ft | 314 kts | 134° |
| 2026-05-05 06:59 | 32.43334 | 34.11456 | 8997 ft | 317 kts | 121° |
| 2026-05-05 06:59 | 32.42461 | 34.13858 | 9003 ft | 320 kts | 108° |
| 2026-05-05 06:59 | 32.41965 | 34.16398 | 9001 ft | 311 kts | 103° |
| 2026-05-05 07:00 | 32.41516 | 34.18927 | 9003 ft | 317 kts | 103° |
| 2026-05-05 07:00 | 32.41057 | 34.21490 | 9004 ft | 319 kts | 103° |
| 2026-05-05 07:00 | 32.40597 | 34.24052 | 9008 ft | 319 kts | 103° |
| 2026-05-05 07:00 | 32.40133 | 34.26620 | 8999 ft | 319 kts | 103° |
| 2026-05-05 07:01 | 32.39668 | 34.29189 | 8993 ft | 319 kts | 103° |
| 2026-05-05 07:01 | 32.39204 | 34.31754 | 8998 ft | 319 kts | 103° |
| 2026-05-05 07:01 | 32.38747 | 34.34285 | 8963 ft | 318 kts | 103° |
| 2026-05-05 07:01 | 32.38294 | 34.36804 | 8669 ft | 311 kts | 103° |
| 2026-05-05 07:02 | 32.37843 | 34.39305 | 8225 ft | 309 kts | 103° |
| 2026-05-05 07:02 | 32.37403 | 34.41735 | 7791 ft | 296 kts | 103° |
| 2026-05-05 07:02 | 32.36979 | 34.44080 | 7364 ft | 288 kts | 104° |
| 2026-05-05 07:02 | 32.36561 | 34.46385 | 6942 ft | 285 kts | 104° |
| 2026-05-05 07:03 | 32.36033 | 34.48617 | 6526 ft | 279 kts | 117° |
| 2026-05-05 07:03 | 32.35803 | 34.49179 | 6413 ft | 277 kts | 122° |
| 2026-05-05 07:03 | 32.34892 | 34.50521 | 6109 ft | 272 kts | 140° |
| 2026-05-05 07:03 | 32.33442 | 34.51917 | 5664 ft | 267 kts | 153° |
| 2026-05-05 07:04 | 32.31803 | 34.52785 | 5232 ft | 259 kts | 170° |
| 2026-05-05 07:04 | 32.31210 | 34.52943 | 5088 ft | 256 kts | 175° |
| 2026-05-05 07:04 | 32.29814 | 34.53073 | 4955 ft | 258 kts | 186° |
| 2026-05-05 07:04 | 32.28096 | 34.53142 | 4982 ft | 255 kts | 174° |
| 2026-05-05 07:05 | 32.26446 | 34.53973 | 4771 ft | 263 kts | 148° |
| 2026-05-05 07:05 | 32.25131 | 34.55494 | 4506 ft | 268 kts | 129° |
| 2026-05-05 07:05 | 32.24267 | 34.57455 | 4249 ft | 272 kts | 111° |
| 2026-05-05 07:05 | 32.23904 | 34.59642 | 4043 ft | 272 kts | 94° |
| 2026-05-05 07:06 | 32.24069 | 34.61865 | 3986 ft | 273 kts | 76° |
| 2026-05-05 07:06 | 32.24749 | 34.63956 | 3995 ft | 273 kts | 60° |
| 2026-05-05 07:06 | 32.25671 | 34.65921 | 3996 ft | 273 kts | 60° |
| 2026-05-05 07:06 | 32.26597 | 34.67890 | 3965 ft | 274 kts | 60° |
| 2026-05-05 07:07 | 32.27391 | 34.69891 | 3816 ft | 270 kts | 72° |
| 2026-05-05 07:07 | 32.27694 | 34.72021 | 3656 ft | 258 kts | 91° |
| 2026-05-05 07:07 | 32.27499 | 34.74068 | 3507 ft | 246 kts | 107° |
| 2026-05-05 07:07 | 32.26906 | 34.75937 | 3361 ft | 242 kts | 117° |
| 2026-05-05 07:08 | 32.26235 | 34.77760 | 3206 ft | 241 kts | 116° |
| 2026-05-05 07:08 | 32.25648 | 34.79359 | 3091 ft | 240 kts | 116° |
| 2026-05-05 07:08 | 32.25105 | 34.81250 | 2990 ft | 239 kts | 109° |
| 2026-05-05 07:08 | 32.24623 | 34.83131 | 2993 ft | 240 kts | 110° |
| 2026-05-05 07:09 | 32.24140 | 34.84991 | 2997 ft | 240 kts | 109° |
| 2026-05-05 07:09 | 32.23653 | 34.86860 | 2996 ft | 234 kts | 110° |
| 2026-05-05 07:09 | 32.23190 | 34.88646 | 2998 ft | 224 kts | 109° |
| 2026-05-05 07:09 | 32.22733 | 34.90393 | 2998 ft | 225 kts | 109° |
| 2026-05-05 07:10 | 32.22268 | 34.92166 | 2999 ft | 226 kts | 109° |
| 2026-05-05 07:10 | 32.21806 | 34.93934 | 3006 ft | 226 kts | 111° |
| 2026-05-05 07:10 | 32.21344 | 34.95707 | 2999 ft | 225 kts | 110° |
| 2026-05-05 07:10 | 32.20886 | 34.97457 | 3003 ft | 226 kts | 111° |
| 2026-05-05 07:11 | 32.20362 | 34.99200 | 3002 ft | 225 kts | 119° |
| 2026-05-05 07:11 | 32.19566 | 35.00768 | 3008 ft | 220 kts | 131° |
| 2026-05-05 07:11 | 32.18671 | 35.02225 | 2999 ft | 220 kts | 131° |
| 2026-05-05 07:11 | 32.17776 | 35.03691 | 3001 ft | 219 kts | 130° |
| 2026-05-05 07:12 | 32.16886 | 35.05147 | 3011 ft | 220 kts | 131° |
| 2026-05-05 07:12 | 32.15992 | 35.06613 | 3003 ft | 220 kts | 130° |
| 2026-05-05 07:12 | 32.15107 | 35.08068 | 3005 ft | 222 kts | 130° |
| 2026-05-05 07:12 | 32.14205 | 35.09548 | 3005 ft | 223 kts | 130° |
| 2026-05-05 07:13 | 32.13299 | 35.11032 | 3000 ft | 221 kts | 130° |
| 2026-05-05 07:13 | 32.12332 | 35.12439 | 2994 ft | 218 kts | 142° |
| 2026-05-05 07:13 | 32.11175 | 35.13575 | 3000 ft | 216 kts | 147° |
| 2026-05-05 07:13 | 32.10010 | 35.14689 | 3003 ft | 215 kts | 147° |
| 2026-05-05 07:14 | 32.08783 | 35.15493 | 2990 ft | 190 kts | 176° |
| 2026-05-05 07:14 | 32.07543 | 35.15396 | 3010 ft | 175 kts | 208° |
| 2026-05-05 07:14 | 32.06584 | 35.14579 | 3013 ft | 171 kts | 236° |
| 2026-05-05 07:14 | 32.06072 | 35.13324 | 3097 ft | 170 kts | 253° |
| 2026-05-05 07:15 | 32.05814 | 35.11949 | 3160 ft | 175 kts | 258° |
| 2026-05-05 07:15 | 32.05381 | 35.10704 | 3085 ft | 164 kts | 237° |
| 2026-05-05 07:15 | 32.04936 | 35.09569 | 3024 ft | 144 kts | 260° |
| 2026-05-05 07:15 | 32.04728 | 35.08441 | 3062 ft | 139 kts | 257° |
| 2026-05-05 07:16 | 32.04536 | 35.07340 | 3021 ft | 136 kts | 257° |
| 2026-05-05 07:16 | 32.04359 | 35.06249 | 2912 ft | 135 kts | 259° |
| 2026-05-05 07:16 | 32.04188 | 35.05160 | 2659 ft | 134 kts | 259° |
| 2026-05-05 07:16 | 32.04023 | 35.04089 | 2547 ft | 133 kts | 259° |
| 2026-05-05 07:17 | 32.03865 | 35.03051 | 2514 ft | 128 kts | 260° |
| 2026-05-05 07:17 | 32.03708 | 35.02019 | 2492 ft | 126 kts | 259° |
| 2026-05-05 07:17 | 32.03556 | 35.01016 | 2229 ft | 123 kts | 259° |
| 2026-05-05 07:17 | 32.03407 | 35.00032 | 2041 ft | 123 kts | 258° |
| 2026-05-05 07:18 | 32.03255 | 34.99033 | 2020 ft | 125 kts | 258° |
| 2026-05-05 07:18 | 32.03101 | 34.98018 | 2017 ft | 126 kts | 258° |
| 2026-05-05 07:18 | 32.02952 | 34.97026 | 1801 ft | 121 kts | 257° |
| 2026-05-05 07:18 | 32.02808 | 34.96046 | 1439 ft | 123 kts | 257° |
| 2026-05-05 07:19 | 32.02663 | 34.95079 | 1181 ft | 118 kts | 257° |
| 2026-05-05 07:19 | 32.02535 | 34.94143 | 995 ft | 118 kts | 256° |
| 2026-05-05 07:19 | 32.02392 | 34.93199 | 875 ft | 118 kts | 256° |
| 2026-05-05 07:19 | 32.02218 | 34.92230 | 684 ft | 122 kts | 258° |
| 2026-05-05 07:20 | 32.02073 | 34.91251 | 483 ft | 122 kts | 259° |
| 2026-05-05 07:20 | 32.01949 | 34.90417 | 318 ft | 120 kts | 260° |
| 2026-05-05 07:20 | 32.01792 | 34.89462 | 164 ft | 119 kts | 259° |
| 2026-05-05 07:20 | 32.01647 | 34.88538 | 128 ft | 103 kts | 258° |
| 2026-05-05 07:21 | 32.01556 | 34.87897 | 121 ft | 55 kts | 259° |
| 2026-05-05 07:21 | 32.01492 | 34.87465 | 122 ft | 47 kts | 260° |
| 2026-05-05 07:21 | 32.01400 | 34.87192 | 119 ft | 18 kts | 217° |
| 2026-05-05 07:21 | 32.01343 | 34.87150 | 122 ft | 0 kts | 214° |
| 2026-05-05 07:22 | 32.01334 | 34.87143 | 123 ft | 5 kts | 214° |
| 2026-05-05 07:22 | 32.01274 | 34.87096 | 120 ft | 16 kts | 213° |
| 2026-05-05 07:23 | 32.01153 | 34.87008 | 124 ft | 20 kts | 211° |
| 2026-05-05 07:23 | 32.01047 | 34.86986 | 128 ft | 12 kts | 148° |
| 2026-05-05 07:23 | 32.00999 | 34.87061 | 126 ft | 13 kts | 122° |
| 2026-05-05 07:23 | 32.00923 | 34.87111 | 128 ft | 13 kts | 193° |
| 2026-05-05 07:24 | 32.00857 | 34.87155 | 130 ft | 7 kts | 169° |
| 2026-05-05 07:24 | 32.00817 | 34.87130 | 130 ft | 8 kts | 209° |
| 2026-05-05 07:24 | 32.00755 | 34.87086 | 129 ft | 13 kts | 217° |
| 2026-05-05 07:24 | 32.00726 | 34.86988 | 130 ft | 14 kts | 243° |
| 2026-05-05 07:25 | 32.00651 | 34.86913 | 126 ft | 15 kts | 211° |
| 2026-05-05 07:25 | 32.00552 | 34.86846 | 130 ft | 18 kts | 209° |
| 2026-05-05 07:25 | 32.00454 | 34.86771 | 130 ft | 14 kts | 214° |
| 2026-05-05 07:25 | 32.00446 | 34.86693 | 126 ft | 4 kts | 306° |
| 2026-05-05 07:26 | 32.00450 | 34.86686 | 126 ft | 0 kts | 306° |